Time;durP1;ratioP1;P1;durP2;ratioP2;P2;SDS_P1;SDS_P2;PMS_P1;PMS_P2;Temp;Humidity;BMP_temperature;BMP_pressure;BME280_temperature;BME280_humidity;BME280_pressure;Samples;Min_cycle;Max_cycle;Signal;HPM_P1;HPM_P2
2022/11/15 00:01:23;;;;;;;8.80;6.90;;;;;;;6.13;54.90;101518.59;106039;1306;21966;-64
2022/11/15 00:03:51;;;;;;;9.60;6.80;;;;;;;6.11;55.02;101512.80;105925;1306;21971;-65
2022/11/15 00:06:17;;;;;;;9.40;5.80;;;;;;;6.08;54.82;101508.71;105935;1306;21972;-63
2022/11/15 00:08:45;;;;;;;9.90;6.80;;;;;;;6.03;54.80;101502.50;106122;1304;21961;-65
2022/11/15 00:11:11;;;;;;;9.90;6.40;;;;;;;5.99;54.94;101500.80;106022;1305;21962;-63
2022/11/15 00:13:38;;;;;;;8.70;5.50;;;;;;;5.97;54.77;101499.70;105964;1301;21962;-65
2022/11/15 00:16:05;;;;;;;6.80;5.20;;;;;;;5.94;54.84;101496.33;105940;1306;23404;-63
2022/11/15 00:18:32;;;;;;;9.20;5.70;;;;;;;5.91;54.82;101493.64;105918;1304;21964;-65
2022/11/15 00:21:07;;;;;;;9.20;5.80;;;;;;;5.89;54.92;101494.64;105920;1301;21965;-64
2022/11/15 00:23:34;;;;;;;7.40;5.20;;;;;;;5.85;54.99;101494.71;106043;1304;21970;-63
2022/11/15 00:26:00;;;;;;;7.30;5.50;;;;;;;5.82;55.14;101494.10;106018;1306;21963;-64
2022/11/15 00:28:26;;;;;;;8.00;5.40;;;;;;;5.78;55.12;101491.23;105963;1306;21968;-64
2022/11/15 00:30:52;;;;;;;7.60;5.20;;;;;;;5.79;54.85;101488.47;105934;1306;22005;-64
2022/11/15 00:33:19;;;;;;;9.20;5.20;;;;;;;5.79;54.90;101486.71;105933;1294;21967;-63
2022/11/15 00:35:45;;;;;;;7.30;4.30;;;;;;;5.76;54.80;101481.41;105909;1304;21982;-64
2022/11/15 00:38:14;;;;;;;6.60;4.00;;;;;;;5.72;54.84;101477.84;105781;1306;22218;-65
2022/11/15 00:40:40;;;;;;;6.80;4.10;;;;;;;5.69;55.11;101476.01;105939;1306;21993;-64
2022/11/15 00:43:07;;;;;;;5.80;4.40;;;;;;;5.67;55.03;101476.48;105947;1306;21958;-64
2022/11/15 00:45:33;;;;;;;7.80;4.60;;;;;;;5.66;54.92;101473.70;105914;1305;21968;-63
2022/11/15 00:48:00;;;;;;;6.60;4.00;;;;;;;5.67;55.04;101476.48;105921;1301;21953;-63
2022/11/15 00:50:25;;;;;;;5.70;4.50;;;;;;;5.66;55.22;101472.64;105960;1305;22019;-64
2022/11/15 00:52:51;;;;;;;6.50;4.30;;;;;;;5.66;55.12;101468.81;105937;1306;21959;-63
2022/11/15 00:55:17;;;;;;;6.40;4.30;;;;;;;5.69;55.40;101469.56;105926;1306;24362;-63
2022/11/15 00:57:43;;;;;;;7.60;4.90;;;;;;;5.71;55.24;101464.04;106001;1306;21963;-65
2022/11/15 01:00:09;;;;;;;5.50;4.00;;;;;;;5.69;55.32;101464.34;105790;1306;21954;-65
2022/11/15 01:02:35;;;;;;;6.90;4.70;;;;;;;5.66;55.23;101465.14;105972;1304;21975;-65
2022/11/15 01:05:01;;;;;;;6.80;4.40;;;;;;;5.64;55.27;101465.27;106002;1304;21955;-63
2022/11/15 01:07:28;;;;;;;5.90;4.20;;;;;;;5.64;55.34;101465.45;105924;1305;21959;-63
2022/11/15 01:09:54;;;;;;;6.50;4.00;;;;;;;5.64;55.23;101467.36;105967;1302;21968;-63
2022/11/15 01:12:19;;;;;;;6.80;4.90;;;;;;;5.63;55.41;101465.24;105974;1304;21966;-63
2022/11/15 01:14:45;;;;;;;5.40;3.90;;;;;;;5.69;55.27;101462.25;105922;1305;21960;-63
2022/11/15 01:17:11;;;;;;;5.50;3.80;;;;;;;5.70;55.12;101461.77;105960;1304;21961;-66
2022/11/15 01:19:37;;;;;;;4.30;3.20;;;;;;;5.65;54.91;101461.98;105957;1306;21964;-66
2022/11/15 01:22:06;;;;;;;6.30;4.00;;;;;;;5.58;54.96;101465.81;106029;1306;21970;-63
2022/11/15 01:24:33;;;;;;;6.60;3.40;;;;;;;5.50;54.92;101464.05;105947;1305;21963;-64
2022/11/15 01:26:59;;;;;;;4.70;3.50;;;;;;;5.45;55.06;101463.74;105904;1304;21961;-64
2022/11/15 01:29:24;;;;;;;5.40;3.50;;;;;;;5.40;55.14;101460.30;105908;1304;21989;-65
2022/11/15 01:31:53;;;;;;;5.40;3.60;;;;;;;5.35;55.33;101455.48;105913;1306;21975;-63
2022/11/15 01:34:19;;;;;;;4.90;3.70;;;;;;;5.33;55.45;101453.16;106015;1305;21974;-64
2022/11/15 01:36:44;;;;;;;4.80;3.20;;;;;;;5.35;55.36;101451.11;105907;1306;21940;-63
2022/11/15 01:39:10;;;;;;;5.60;3.80;;;;;;;5.35;55.40;101449.38;105921;1306;21960;-63
2022/11/15 01:41:36;;;;;;;5.10;3.40;;;;;;;5.39;55.34;101445.48;105944;1306;23064;-63
2022/11/15 01:44:33;;;;;;;4.20;3.30;;;;;;;5.40;55.15;101440.45;105928;1306;22027;-64
2022/11/15 01:47:05;;;;;;;7.50;3.30;;;;;;;5.35;55.08;101439.29;105899;1306;23164;-64
2022/11/15 01:49:32;;;;;;;7.10;3.80;;;;;;;5.32;54.95;101436.08;105965;1301;21959;-64
2022/11/15 01:52:01;;;;;;;7.70;4.00;;;;;;;5.30;54.98;101433.41;106009;1306;22008;-66
2022/11/15 01:54:29;;;;;;;5.40;3.90;;;;;;;5.28;55.23;101433.71;106054;1304;23112;-64
2022/11/15 01:57:03;;;;;;;4.70;3.40;;;;;;;5.30;55.18;101431.84;105645;1306;21972;-65
2022/11/15 01:59:28;;;;;;;6.40;3.60;;;;;;;5.31;55.16;101431.52;105998;1294;21970;-63
2022/11/15 02:01:56;;;;;;;5.50;3.60;;;;;;;5.30;54.93;101432.88;105794;1306;22537;-63
2022/11/15 02:04:27;;;;;;;4.80;3.50;;;;;;;5.27;54.87;101436.29;105814;1306;23716;-63
2022/11/15 02:06:56;;;;;;;5.60;3.90;;;;;;;5.24;55.12;101434.31;105802;1306;22018;-63
2022/11/15 02:09:22;;;;;;;6.10;3.90;;;;;;;5.22;55.29;101431.45;105750;1306;22001;-63
2022/11/15 02:11:48;;;;;;;5.30;3.90;;;;;;;5.20;55.05;101432.80;105902;1304;21965;-66
2022/11/15 02:14:15;;;;;;;5.30;3.80;;;;;;;5.19;55.02;101434.87;105930;1302;21960;-64
2022/11/15 02:17:00;;;;;;;4.60;3.30;;;;;;;5.20;55.30;101436.64;105915;1306;21945;-64
2022/11/15 02:19:32;;;;;;;4.60;3.40;;;;;;;5.24;55.15;101434.46;106048;1301;21967;-62
2022/11/15 02:22:10;;;;;;;8.70;3.30;;;;;;;5.25;55.25;101435.02;105265;1306;1002780;-63
2022/11/15 02:25:03;;;;;;;6.30;3.50;;;;;;;5.23;55.16;101435.31;105764;1306;22047;-65
2022/11/15 02:27:58;;;;;;;5.10;3.70;;;;;;;5.17;55.05;101433.96;105963;1306;21988;-63
2022/11/15 02:30:47;;;;;;;7.70;4.00;;;;;;;5.18;55.19;101430.82;105894;1304;22011;-62
2022/11/15 02:33:18;;;;;;;5.90;4.10;;;;;;;5.21;55.19;101429.52;105846;1306;21967;-65
2022/11/15 02:35:56;;;;;;;6.20;4.10;;;;;;;5.25;55.22;101422.85;105201;1305;1002490;-62
2022/11/15 02:38:38;;;;;;;6.10;3.60;;;;;;;5.29;55.39;101421.38;105904;1305;21971;-62
2022/11/15 02:41:13;;;;;;;7.40;3.90;;;;;;;5.35;55.47;101417.17;105900;1306;21995;-65
2022/11/15 02:43:57;;;;;;;6.20;4.20;;;;;;;5.44;55.50;101414.44;105875;1306;21961;-65
2022/11/15 02:49:20;;;;;;;10.60;5.00;;;;;;;5.54;55.37;101412.08;105927;1306;21957;-62
2022/11/15 02:51:48;;;;;;;9.00;5.90;;;;;;;5.56;55.38;101412.29;106031;1305;22127;-65
2022/11/15 02:54:21;;;;;;;8.70;5.40;;;;;;;5.57;55.51;101404.14;105786;1306;21966;-64
2022/11/15 02:56:47;;;;;;;6.40;4.60;;;;;;;5.62;55.14;101406.70;105917;1304;22007;-65
2022/11/15 02:59:28;;;;;;;7.00;4.60;;;;;;;5.63;55.34;101405.34;105885;1306;21979;-61
2022/11/15 03:02:06;;;;;;;7.70;4.80;;;;;;;5.64;55.29;101399.45;105912;1301;22026;-65
2022/11/15 03:04:53;;;;;;;9.00;5.10;;;;;;;5.68;55.27;101392.59;105985;1306;22427;-62
2022/11/15 03:07:43;;;;;;;11.40;4.70;;;;;;;5.70;55.75;101390.02;105928;1301;21960;-62
2022/11/15 03:10:26;;;;;;;7.70;5.00;;;;;;;5.75;55.70;101387.34;105963;1306;21977;-62
2022/11/15 03:12:56;;;;;;;7.50;5.60;;;;;;;5.78;55.98;101383.74;105924;1301;21964;-61
2022/11/15 03:15:30;;;;;;;7.80;5.10;;;;;;;5.82;55.66;101384.02;105962;1305;22041;-65
2022/11/15 03:18:14;;;;;;;9.60;5.80;;;;;;;5.91;55.66;101378.64;105955;1306;21959;-65
2022/11/15 03:20:42;;;;;;;6.50;4.50;;;;;;;5.97;56.01;101377.39;105870;1304;21971;-62
2022/11/15 03:23:10;;;;;;;12.50;5.10;;;;;;;6.00;56.17;101377.66;106006;1304;21965;-62
2022/11/15 03:25:40;;;;;;;11.40;5.60;;;;;;;6.04;56.11;101374.28;105888;1306;21969;-66
2022/11/15 03:28:06;;;;;;;12.90;5.90;;;;;;;6.11;56.28;101374.77;105901;1305;22005;-63
2022/11/15 03:30:33;;;;;;;8.50;5.80;;;;;;;6.19;56.58;101374.24;105890;1304;21959;-65
2022/11/15 03:32:58;;;;;;;9.20;5.20;;;;;;;6.26;56.21;101374.73;105768;1306;21964;-66
2022/11/15 03:35:25;;;;;;;7.80;4.90;;;;;;;6.32;56.49;101373.30;105764;1305;21958;-62
2022/11/15 03:38:08;;;;;;;6.80;4.50;;;;;;;6.37;56.17;101368.37;105898;1306;21964;-66
2022/11/15 03:40:42;;;;;;;8.20;5.70;;;;;;;6.44;56.27;101363.27;105940;1306;22035;-62
2022/11/15 03:43:14;;;;;;;8.70;5.70;;;;;;;6.50;56.26;101359.73;105902;1301;21965;-62
2022/11/15 03:45:53;;;;;;;8.40;5.70;;;;;;;6.56;56.31;101358.80;105993;1306;22005;-62
2022/11/15 03:48:27;;;;;;;8.10;5.00;;;;;;;6.58;56.16;101359.71;105967;1306;21976;-62
2022/11/15 03:50:53;;;;;;;11.10;6.30;;;;;;;6.61;56.34;101358.21;105955;1304;21982;-66
2022/11/15 03:53:18;;;;;;;6.90;5.30;;;;;;;6.63;56.20;101354.58;105902;1306;21980;-63
2022/11/15 03:55:44;;;;;;;9.10;5.50;;;;;;;6.65;56.31;101358.80;105889;1301;21966;-62
2022/11/15 03:58:10;;;;;;;8.10;5.20;;;;;;;6.66;56.12;101358.64;105879;1306;21984;-62
2022/11/15 04:00:36;;;;;;;10.70;6.80;;;;;;;6.66;56.10;101356.89;105929;1306;21962;-61
2022/11/15 04:03:02;;;;;;;7.10;5.40;;;;;;;6.66;56.02;101355.67;105774;1306;22776;-66
2022/11/15 04:05:28;;;;;;;9.40;5.00;;;;;;;6.66;56.13;101356.55;105910;1306;21979;-63
2022/11/15 04:07:54;;;;;;;10.30;5.50;;;;;;;6.64;56.00;101355.13;105873;1306;21974;-66
2022/11/15 04:10:21;;;;;;;8.10;6.10;;;;;;;6.63;56.18;101358.24;105947;1306;22029;-62
2022/11/15 04:12:48;;;;;;;10.50;6.10;;;;;;;6.63;56.04;101352.83;105985;1306;21988;-61
2022/11/15 04:15:18;;;;;;;8.50;5.20;;;;;;;6.63;56.37;101354.21;105984;1301;21966;-62
2022/11/15 04:17:47;;;;;;;7.80;5.00;;;;;;;6.65;56.38;101353.05;106057;1306;22536;-61
2022/11/15 04:26:12;;;;;;;8.50;6.20;;;;;;;6.80;56.29;101351.43;105867;1302;21966;-66
2022/11/15 04:29:33;;;;;;;10.60;7.40;;;;;;;6.81;56.45;101350.39;105961;1302;21968;-62
2022/11/15 04:31:25;;;;;;;8.90;5.50;;;;;;;6.88;56.13;101349.80;105919;1306;21947;-67
2022/11/15 04:33:52;;;;;;;8.00;5.80;;;;;;;6.92;56.30;101344.29;105993;1306;21970;-67
2022/11/15 04:39:02;;;;;;;7.90;5.20;;;;;;;6.93;56.04;101336.83;105924;1304;21968;-67
2022/11/15 04:41:29;;;;;;;7.60;5.00;;;;;;;6.93;56.10;101333.16;106021;1304;22015;-65
2022/11/15 04:43:55;;;;;;;7.30;4.90;;;;;;;6.91;56.11;101331.02;105890;1306;23138;-66
2022/11/15 04:46:25;;;;;;;9.40;5.10;;;;;;;6.90;56.08;101334.16;105989;1305;22005;-64
2022/11/15 04:48:51;;;;;;;9.30;4.90;;;;;;;6.86;55.87;101334.08;105953;1306;21983;-61
2022/11/15 04:51:17;;;;;;;9.20;5.40;;;;;;;6.87;55.99;101329.20;105960;1306;21963;-61
2022/11/15 04:53:44;;;;;;;8.60;5.60;;;;;;;6.92;56.14;101332.27;105963;1304;21969;-61
2022/11/15 04:56:09;;;;;;;9.90;4.90;;;;;;;6.99;55.86;101335.00;105974;1305;21995;-66
2022/11/15 04:58:36;;;;;;;10.30;6.20;;;;;;;6.97;56.17;101335.31;105951;1306;21992;-60
2022/11/15 05:01:08;;;;;;;8.60;5.40;;;;;;;6.96;56.28;101335.65;105961;1304;21959;-61
2022/11/15 05:06:21;;;;;;;13.40;7.10;;;;;;;7.05;56.16;101336.34;105963;1306;21962;-61
2022/11/15 05:08:47;;;;;;;11.70;6.10;;;;;;;7.07;55.87;101334.10;105959;1304;22052;-65
2022/11/15 05:11:13;;;;;;;11.00;6.20;;;;;;;7.07;56.20;101336.89;105959;1298;21961;-65
2022/11/15 05:13:39;;;;;;;10.20;5.90;;;;;;;7.07;55.96;101336.18;105248;1306;1002374;-66
2022/11/15 05:16:05;;;;;;;7.10;5.50;;;;;;;7.08;56.20;101332.53;105984;1306;21991;-65
2022/11/15 05:18:31;;;;;;;17.80;6.60;;;;;;;7.11;56.29;101332.78;105983;1300;21959;-66
2022/11/15 05:21:09;;;;;;;15.60;6.00;;;;;;;7.17;56.45;101331.98;105941;1304;21961;-59
2022/11/15 05:23:35;;;;;;;18.70;6.50;;;;;;;7.23;56.35;101330.53;106022;1306;21965;-60
2022/11/15 05:26:02;;;;;;;18.00;9.20;;;;;;;7.30;56.34;101326.10;106039;1305;21961;-60
2022/11/15 05:28:28;;;;;;;26.80;10.70;;;;;;;7.38;56.47;101323.97;105987;1304;21969;-66
2022/11/15 05:31:08;;;;;;;18.70;9.20;;;;;;;7.43;56.38;101322.30;105951;1306;21966;-61
2022/11/15 05:33:35;;;;;;;14.90;8.30;;;;;;;7.53;56.61;101322.96;105943;1305;22030;-68
2022/11/15 05:36:10;;;;;;;26.40;9.50;;;;;;;7.69;56.69;101318.48;106055;1305;21977;-61
2022/11/15 05:38:35;;;;;;;29.30;8.10;;;;;;;7.85;56.71;101317.33;105763;1300;22005;-60
2022/11/15 05:41:01;;;;;;;20.50;7.60;;;;;;;7.93;56.42;101319.72;105972;1306;21957;-59
2022/11/15 05:43:27;;;;;;;12.10;6.40;;;;;;;7.98;56.31;101318.71;105729;1306;21955;-60
2022/11/15 05:45:53;;;;;;;14.20;6.80;;;;;;;8.02;56.23;101316.67;105819;1306;21965;-65
2022/11/15 05:48:19;;;;;;;10.40;6.60;;;;;;;8.05;56.21;101316.37;105673;1306;21968;-61
2022/11/15 05:50:46;;;;;;;8.10;5.70;;;;;;;8.11;56.16;101314.19;105932;1306;23022;-67
2022/11/15 05:53:12;;;;;;;11.20;5.30;;;;;;;8.15;56.22;101315.63;106061;1306;21979;-59
2022/11/15 05:55:41;;;;;;;10.50;4.90;;;;;;;8.15;56.02;101317.20;105935;1306;23617;-60
2022/11/15 05:58:07;;;;;;;7.70;5.20;;;;;;;8.15;55.92;101314.77;105772;1306;21971;-65
2022/11/15 06:00:32;;;;;;;8.20;5.60;;;;;;;8.18;55.85;101318.11;105911;1306;21962;-66
2022/11/15 06:02:58;;;;;;;9.90;5.00;;;;;;;8.22;56.02;101311.67;105823;1306;21982;-67
2022/11/15 06:05:24;;;;;;;14.00;6.40;;;;;;;8.24;56.15;101306.98;105892;1304;22063;-66
2022/11/15 06:07:50;;;;;;;7.60;4.80;;;;;;;8.30;56.40;101305.15;105964;1304;21977;-61
2022/11/15 06:10:16;;;;;;;8.70;5.50;;;;;;;8.36;56.26;101309.06;105954;1306;21957;-66
2022/11/15 06:12:42;;;;;;;8.00;4.80;;;;;;;8.38;56.18;101309.95;105997;1306;21958;-66
2022/11/15 06:15:09;;;;;;;7.30;4.80;;;;;;;8.43;56.24;101310.36;105938;1306;21965;-67
2022/11/15 06:17:35;;;;;;;6.60;4.90;;;;;;;8.50;56.42;101311.69;106003;1305;22255;-61
2022/11/15 06:20:01;;;;;;;10.30;4.70;;;;;;;8.56;56.35;101309.85;105986;1306;21960;-61
2022/11/15 06:22:28;;;;;;;9.30;4.50;;;;;;;8.59;56.33;101308.65;105982;1306;21952;-61
2022/11/15 06:24:55;;;;;;;10.70;4.40;;;;;;;8.67;56.38;101306.09;105977;1305;21960;-61
2022/11/15 06:27:20;;;;;;;8.00;4.80;;;;;;;8.73;56.26;101305.48;105968;1306;21975;-63
2022/11/15 06:29:47;;;;;;;6.60;4.70;;;;;;;8.79;56.30;101305.18;106034;1306;21968;-61
2022/11/15 06:32:13;;;;;;;6.70;4.60;;;;;;;8.84;56.35;101307.67;105769;1300;310494;-68
2022/11/15 06:34:39;;;;;;;6.90;4.50;;;;;;;8.88;56.28;101309.11;105995;1305;21965;-67
2022/11/15 06:37:05;;;;;;;9.70;4.90;;;;;;;8.93;56.27;101307.93;105970;1306;21964;-61
2022/11/15 06:39:31;;;;;;;8.10;4.60;;;;;;;8.97;56.46;101304.82;105987;1306;21983;-67
2022/11/15 06:41:57;;;;;;;22.60;9.10;;;;;;;9.05;56.51;101305.23;105957;1306;21977;-69
2022/11/15 06:44:23;;;;;;;23.20;10.70;;;;;;;9.17;56.77;101305.17;105831;1306;21967;-69
2022/11/15 06:46:49;;;;;;;13.10;8.90;;;;;;;9.28;57.00;101299.14;105957;1306;21962;-61
2022/11/15 06:49:15;;;;;;;21.50;7.20;;;;;;;9.40;56.87;101295.91;105971;1304;21956;-68
2022/11/15 06:51:40;;;;;;;17.80;6.60;;;;;;;9.55;56.79;101295.30;106002;1306;21963;-69
2022/11/15 06:54:07;;;;;;;14.20;5.90;;;;;;;9.69;56.77;101292.94;105779;1306;21957;-61
2022/11/15 06:56:33;;;;;;;6.70;5.00;;;;;;;9.79;56.73;101293.67;106046;1306;21964;-69
2022/11/15 06:58:59;;;;;;;10.10;5.00;;;;;;;9.91;56.69;101294.97;106062;1304;21961;-69
2022/11/15 07:01:25;;;;;;;9.90;5.50;;;;;;;10.01;56.63;101288.54;105948;1305;21994;-61
2022/11/15 07:03:54;;;;;;;10.30;5.20;;;;;;;10.11;56.66;101289.11;105693;1307;22000;-68
2022/11/15 07:06:20;;;;;;;14.50;5.10;;;;;;;10.18;56.54;101292.63;105818;1306;22006;-68
2022/11/15 07:08:47;;;;;;;41.50;7.00;;;;;;;10.22;56.53;101288.45;105942;1306;21965;-61
2022/11/15 07:11:14;;;;;;;46.20;7.20;;;;;;;10.29;56.65;101288.47;105242;1306;1002419;-61
2022/11/15 07:13:40;;;;;;;19.30;8.60;;;;;;;10.36;56.71;101284.98;105988;1303;21980;-67
2022/11/15 07:16:08;;;;;;;36.60;7.00;;;;;;;10.40;56.67;101287.99;105991;1306;21960;-61
2022/11/15 07:18:38;;;;;;;28.90;7.30;;;;;;;10.46;56.81;101282.95;106001;1306;22105;-60
2022/11/15 07:21:06;;;;;;;459.00;31.80;;;;;;;10.53;56.81;101278.76;106026;1302;21968;-66
2022/11/15 07:23:31;;;;;;;311.40;23.70;;;;;;;10.59;56.73;101281.23;105941;1305;22750;-67
2022/11/15 07:25:58;;;;;;;311.80;20.50;;;;;;;10.65;56.69;101278.95;105986;1304;21960;-65
2022/11/15 07:28:27;;;;;;;191.20;15.50;;;;;;;10.72;56.61;101274.22;106033;1297;21971;-68
2022/11/15 07:30:54;;;;;;;82.00;10.80;;;;;;;10.81;56.54;101273.88;106000;1304;21974;-68
2022/11/15 07:33:20;;;;;;;85.80;10.50;;;;;;;10.88;56.68;101273.17;105996;1306;21964;-62
2022/11/15 07:35:50;;;;;;;46.30;9.40;;;;;;;10.94;56.66;101270.73;106022;1306;21961;-67
2022/11/15 07:38:19;;;;;;;20.40;7.40;;;;;;;10.99;56.71;101267.39;105991;1306;21961;-60
2022/11/15 07:40:46;;;;;;;15.70;7.30;;;;;;;11.02;56.45;101264.42;106032;1308;21967;-61
2022/11/15 07:43:13;;;;;;;13.00;7.10;;;;;;;11.03;56.52;101260.20;106122;1292;21962;-68
2022/11/15 07:45:44;;;;;;;15.60;6.80;;;;;;;11.06;56.66;101255.62;106080;1307;21969;-68
2022/11/15 07:48:10;;;;;;;12.80;6.30;;;;;;;11.10;56.74;101247.19;106028;1303;21965;-62
2022/11/15 07:50:42;;;;;;;11.50;6.20;;;;;;;11.14;56.69;101248.42;106045;1301;21966;-68
2022/11/15 07:53:08;;;;;;;12.00;6.40;;;;;;;11.20;56.62;101247.72;106058;1293;21954;-67
2022/11/15 07:55:34;;;;;;;11.60;7.40;;;;;;;11.24;56.62;101246.66;106017;1309;21966;-61
2022/11/15 07:58:04;;;;;;;10.60;6.90;;;;;;;11.27;56.62;101242.26;105999;1304;22703;-68
2022/11/15 08:00:30;;;;;;;12.30;7.10;;;;;;;11.32;56.57;101239.27;105974;1308;21959;-63
2022/11/15 08:03:12;;;;;;;8.60;5.60;;;;;;;11.38;56.61;101239.08;106001;1306;21959;-64
2022/11/15 08:05:40;;;;;;;10.80;6.40;;;;;;;11.43;56.70;101237.66;105981;1307;21995;-63
2022/11/15 08:08:07;;;;;;;10.90;6.50;;;;;;;11.47;56.78;101235.20;105758;1306;21966;-69
2022/11/15 08:10:33;;;;;;;11.70;5.90;;;;;;;11.47;56.80;101235.56;105988;1309;24037;-67
2022/11/15 08:13:04;;;;;;;10.00;6.60;;;;;;;11.50;57.06;101239.05;105952;1309;21975;-63
2022/11/15 08:15:30;;;;;;;9.20;5.90;;;;;;;11.54;56.99;101237.27;105951;1305;21972;-68
2022/11/15 08:17:58;;;;;;;9.60;6.10;;;;;;;11.58;56.77;101234.47;105980;1309;21966;-69
2022/11/15 08:20:31;;;;;;;8.50;5.10;;;;;;;11.66;56.82;101229.52;105977;1308;21969;-67
2022/11/15 08:22:58;;;;;;;13.10;6.90;;;;;;;11.73;56.87;101230.73;106061;1309;23076;-64
2022/11/15 08:25:28;;;;;;;12.40;6.50;;;;;;;11.80;57.01;101227.54;105973;1299;21978;-68
2022/11/15 08:27:55;;;;;;;8.90;6.40;;;;;;;11.82;57.00;101230.52;105989;1308;22015;-64
2022/11/15 08:30:20;;;;;;;14.50;8.10;;;;;;;11.81;57.00;101226.65;106039;1304;21964;-66
2022/11/15 08:32:48;;;;;;;9.20;6.70;;;;;;;11.87;56.89;101225.58;105972;1297;21967;-68
2022/11/15 08:35:14;;;;;;;8.90;6.00;;;;;;;11.92;56.90;101221.50;106017;1304;23646;-65
2022/11/15 08:37:39;;;;;;;7.90;5.60;;;;;;;11.94;56.80;101221.15;105988;1304;21969;-64
2022/11/15 08:40:06;;;;;;;9.10;6.30;;;;;;;11.96;56.89;101217.09;105989;1304;21974;-67
2022/11/15 08:42:33;;;;;;;9.20;6.20;;;;;;;12.01;56.76;101212.52;106046;1305;21982;-65
2022/11/15 08:45:01;;;;;;;9.80;6.60;;;;;;;12.06;56.70;101208.13;106011;1306;21971;-67
2022/11/15 08:47:27;;;;;;;8.80;6.50;;;;;;;12.09;56.62;101204.40;106083;1305;21957;-65
2022/11/15 08:49:55;;;;;;;10.50;6.50;;;;;;;12.14;56.63;101202.27;106119;1301;21966;-67
2022/11/15 08:52:21;;;;;;;8.10;5.70;;;;;;;12.18;56.73;101197.48;106023;1306;21970;-66
2022/11/15 08:54:46;;;;;;;10.70;6.20;;;;;;;12.23;56.89;101194.82;105862;1305;21970;-65
2022/11/15 08:57:12;;;;;;;8.30;5.90;;;;;;;12.31;56.78;101192.84;106110;1308;21977;-64
2022/11/15 08:59:38;;;;;;;8.60;6.90;;;;;;;12.37;56.93;101190.49;106028;1304;21980;-66
2022/11/15 09:02:04;;;;;;;9.30;6.80;;;;;;;12.41;56.88;101187.30;105978;1304;21962;-66
2022/11/15 09:04:32;;;;;;;9.00;6.40;;;;;;;12.45;56.77;101186.23;106022;1304;22004;-65
2022/11/15 09:06:58;;;;;;;8.00;6.10;;;;;;;12.48;56.79;101179.70;106009;1297;21998;-66
2022/11/15 09:09:23;;;;;;;8.40;5.80;;;;;;;12.54;56.76;101172.96;106016;1294;21965;-67
2022/11/15 09:11:50;;;;;;;7.90;6.30;;;;;;;12.58;56.85;101171.88;106028;1305;22011;-67
2022/11/15 09:14:16;;;;;;;10.40;6.00;;;;;;;12.62;57.04;101166.38;106047;1304;21963;-65
2022/11/15 09:16:42;;;;;;;9.20;6.00;;;;;;;12.68;57.15;101164.73;106018;1304;21963;-65
2022/11/15 09:19:11;;;;;;;17.40;7.00;;;;;;;12.76;57.18;101161.69;106054;1304;21966;-65
2022/11/15 09:21:39;;;;;;;11.20;6.90;;;;;;;12.84;57.21;101157.21;105956;1304;21970;-64
2022/11/15 09:24:05;;;;;;;7.80;6.00;;;;;;;12.91;57.26;101152.21;106039;1305;21959;-65
2022/11/15 09:26:37;;;;;;;10.20;6.30;;;;;;;12.98;57.29;101152.69;106046;1305;21980;-65
2022/11/15 09:29:03;;;;;;;8.60;5.60;;;;;;;13.05;57.22;101145.02;105990;1306;22989;-66
2022/11/15 09:31:31;;;;;;;9.00;6.00;;;;;;;13.13;57.26;101139.31;105951;1304;21960;-66
2022/11/15 09:33:58;;;;;;;9.40;6.30;;;;;;;13.20;57.15;101138.88;105936;1305;21976;-66
2022/11/15 09:36:24;;;;;;;11.70;6.90;;;;;;;13.28;57.17;101136.49;105973;1304;21962;-66
2022/11/15 09:38:50;;;;;;;8.70;6.10;;;;;;;13.35;57.04;101131.13;105991;1304;21946;-67
2022/11/15 09:41:20;;;;;;;10.20;6.10;;;;;;;13.43;57.06;101125.77;105957;1304;21979;-67
2022/11/15 09:44:25;;;;;;;10.30;5.80;;;;;;;13.51;57.04;101124.98;105924;1305;21966;-68
2022/11/15 09:47:22;;;;;;;9.00;5.80;;;;;;;13.60;57.05;101118.71;105661;1304;21975;-68
2022/11/15 09:49:52;;;;;;;8.70;6.20;;;;;;;13.66;57.00;101112.80;105928;1304;22089;-66
2022/11/15 09:52:19;;;;;;;9.50;6.70;;;;;;;13.73;57.02;101106.70;105967;1304;21965;-68
2022/11/15 09:54:47;;;;;;;10.70;7.20;;;;;;;13.77;56.85;101108.95;106054;1305;21955;-67
2022/11/15 09:57:20;;;;;;;8.50;6.20;;;;;;;13.82;56.90;101105.88;106055;1294;22305;-67
2022/11/15 09:59:50;;;;;;;8.50;6.30;;;;;;;13.87;56.84;101106.70;105966;1306;23757;-64
2022/11/15 10:02:37;;;;;;;10.30;6.60;;;;;;;13.91;56.92;101103.63;106008;1304;21972;-65
2022/11/15 10:05:04;;;;;;;15.30;7.10;;;;;;;13.95;56.95;101096.69;105989;1304;21972;-64
2022/11/15 10:07:44;;;;;;;21.10;7.60;;;;;;;13.98;56.85;101094.52;105974;1304;21970;-68
2022/11/15 10:10:34;;;;;;;15.00;7.80;;;;;;;14.01;56.98;101087.61;106096;1304;21956;-66
2022/11/15 10:13:01;;;;;;;14.30;7.70;;;;;;;14.04;56.85;101083.33;105930;1304;21960;-68
2022/11/15 10:15:29;;;;;;;11.10;6.70;;;;;;;14.07;56.84;101084.35;106073;1304;22107;-65
2022/11/15 10:18:03;;;;;;;8.90;6.20;;;;;;;14.10;56.88;101082.17;105815;1306;22017;-69
2022/11/15 10:20:36;;;;;;;10.70;6.80;;;;;;;14.12;56.89;101074.55;105967;1296;22068;-68
2022/11/15 10:23:11;;;;;;;10.80;7.70;;;;;;;14.11;56.99;101073.52;105813;1306;21985;-69
2022/11/15 10:25:38;;;;;;;11.70;7.10;;;;;;;14.14;56.94;101068.33;106049;1304;22041;-68
2022/11/15 10:28:04;;;;;;;13.00;8.10;;;;;;;14.13;56.92;101065.71;105930;1304;21966;-66
2022/11/15 10:30:38;;;;;;;13.10;7.90;;;;;;;14.12;57.00;101062.20;105938;1304;21972;-69
2022/11/15 10:33:17;;;;;;;11.10;7.40;;;;;;;14.10;56.95;101057.64;105958;1304;22003;-69
2022/11/15 10:35:43;;;;;;;10.50;7.40;;;;;;;14.08;56.81;101055.37;106021;1304;22244;-68
2022/11/15 10:38:10;;;;;;;11.60;7.70;;;;;;;14.04;56.79;101058.27;106009;1302;21963;-67
2022/11/15 10:40:38;;;;;;;13.20;8.60;;;;;;;14.03;56.61;101057.06;106019;1304;22005;-64
2022/11/15 10:43:16;;;;;;;12.50;9.10;;;;;;;13.96;56.59;101055.21;106103;1304;21976;-70
2022/11/15 10:45:46;;;;;;;12.70;8.50;;;;;;;13.87;56.45;101053.42;105970;1304;21966;-70
2022/11/15 10:48:12;;;;;;;13.60;8.10;;;;;;;13.83;56.69;101054.89;106092;1300;22213;-65
2022/11/15 10:50:45;;;;;;;10.80;8.10;;;;;;;13.81;56.64;101052.27;106026;1304;21963;-69
2022/11/15 10:53:28;;;;;;;12.30;8.20;;;;;;;13.78;56.69;101045.79;106037;1302;21969;-63
2022/11/15 10:55:57;;;;;;;10.20;7.70;;;;;;;13.74;56.71;101040.89;105986;1302;21976;-67
2022/11/15 10:58:43;;;;;;;12.10;8.80;;;;;;;13.69;56.85;101034.98;105816;1306;23852;-67
2022/11/15 11:01:45;;;;;;;14.60;9.60;;;;;;;13.66;56.71;101029.03;105973;1304;21962;-67
2022/11/15 11:04:11;;;;;;;12.10;7.90;;;;;;;13.63;56.80;101029.25;106052;1304;21952;-66
2022/11/15 11:06:54;;;;;;;10.90;8.00;;;;;;;13.66;56.90;101025.52;106040;1305;21961;-68
2022/11/15 11:09:35;;;;;;;13.50;7.90;;;;;;;13.69;56.97;101020.17;106805;1306;21980;-66
2022/11/15 11:12:02;;;;;;;13.60;9.20;;;;;;;13.76;57.10;101014.77;106248;1304;21966;-67
2022/11/15 11:14:36;;;;;;;13.30;9.30;;;;;;;13.83;57.04;101008.69;106097;1306;21963;-67
2022/11/15 11:17:25;;;;;;;15.40;8.80;;;;;;;13.84;57.20;101003.89;105986;1304;24320;-66
2022/11/15 11:20:23;;;;;;;19.40;9.10;;;;;;;13.88;57.28;100996.77;105917;1304;21957;-67
2022/11/15 11:23:18;;;;;;;12.90;8.70;;;;;;;13.88;57.33;100988.66;105338;1304;1002271;-67
2022/11/15 11:26:09;;;;;;;15.90;8.90;;;;;;;13.89;57.30;100982.64;105843;1298;21981;-67
2022/11/15 11:28:36;;;;;;;19.00;9.60;;;;;;;13.98;57.44;100977.55;105734;1306;21987;-66
2022/11/15 11:31:18;;;;;;;16.10;8.90;;;;;;;14.10;57.50;100972.60;105990;1304;22005;-68
2022/11/15 11:33:55;;;;;;;11.10;8.20;;;;;;;14.15;57.56;100967.55;106054;1304;23285;-67
2022/11/15 11:36:39;;;;;;;14.40;8.60;;;;;;;14.22;57.50;100963.36;105830;1305;22011;-68
2022/11/15 11:39:17;;;;;;;12.90;9.20;;;;;;;14.31;57.48;100957.73;105714;1306;21961;-66
2022/11/15 11:42:10;;;;;;;14.60;9.10;;;;;;;14.30;57.31;100954.41;105987;1304;22046;-68
2022/11/15 11:44:55;;;;;;;17.80;9.20;;;;;;;14.32;57.35;100947.85;105815;1306;21964;-68